sensor_id;sensor_type;location;lat;lon;timestamp;temperature;humidity
20366;DHT22;10341;49.894;8.822;2023-03-12T00:01:38;-3.10;99.90
20366;DHT22;10341;49.894;8.822;2023-03-12T00:06:57;-3.10;99.90
20366;DHT22;10341;49.894;8.822;2023-03-12T00:12:17;-3.10;99.90
20366;DHT22;10341;49.894;8.822;2023-03-12T00:17:36;-3.10;99.90
20366;DHT22;10341;49.894;8.822;2023-03-12T00:22:55;-3.20;99.90
20366;DHT22;10341;49.894;8.822;2023-03-12T00:28:15;-3.10;99.90
20366;DHT22;10341;49.894;8.822;2023-03-12T00:33:35;-3.00;99.90
20366;DHT22;10341;49.894;8.822;2023-03-12T00:38:56;-3.00;99.90
20366;DHT22;10341;49.894;8.822;2023-03-12T00:44:15;-3.00;99.90
20366;DHT22;10341;49.894;8.822;2023-03-12T00:49:36;-3.10;99.90
20366;DHT22;10341;49.894;8.822;2023-03-12T00:54:55;-3.10;99.90
20366;DHT22;10341;49.894;8.822;2023-03-12T01:00:17;-3.10;99.90
20366;DHT22;10341;49.894;8.822;2023-03-12T01:05:38;-3.00;99.90
20366;DHT22;10341;49.894;8.822;2023-03-12T01:10:59;-2.80;99.90
20366;DHT22;10341;49.894;8.822;2023-03-12T01:16:18;-2.70;99.90
20366;DHT22;10341;49.894;8.822;2023-03-12T01:21:37;-2.60;99.90
20366;DHT22;10341;49.894;8.822;2023-03-12T01:26:57;-2.50;99.90
20366;DHT22;10341;49.894;8.822;2023-03-12T01:32:16;-2.40;99.90
20366;DHT22;10341;49.894;8.822;2023-03-12T01:37:36;-2.40;99.90
20366;DHT22;10341;49.894;8.822;2023-03-12T01:42:56;-2.30;99.90
20366;DHT22;10341;49.894;8.822;2023-03-12T01:48:18;-2.30;99.90
20366;DHT22;10341;49.894;8.822;2023-03-12T01:53:39;-2.30;99.90
20366;DHT22;10341;49.894;8.822;2023-03-12T01:59:07;-2.20;99.90
20366;DHT22;10341;49.894;8.822;2023-03-12T02:04:30;-2.20;99.90
20366;DHT22;10341;49.894;8.822;2023-03-12T02:09:51;-2.20;99.90
20366;DHT22;10341;49.894;8.822;2023-03-12T02:15:10;-2.20;99.90
20366;DHT22;10341;49.894;8.822;2023-03-12T02:20:48;-2.00;99.90
20366;DHT22;10341;49.894;8.822;2023-03-12T02:26:10;-2.10;99.90
20366;DHT22;10341;49.894;8.822;2023-03-12T02:31:36;-2.00;99.90
20366;DHT22;10341;49.894;8.822;2023-03-12T02:36:56;-2.00;99.90
20366;DHT22;10341;49.894;8.822;2023-03-12T02:42:16;-1.90;99.90
20366;DHT22;10341;49.894;8.822;2023-03-12T02:47:35;-1.80;99.90
20366;DHT22;10341;49.894;8.822;2023-03-12T02:52:55;-1.80;99.90
20366;DHT22;10341;49.894;8.822;2023-03-12T02:58:15;-1.70;99.90
20366;DHT22;10341;49.894;8.822;2023-03-12T03:03:34;-1.70;99.90
20366;DHT22;10341;49.894;8.822;2023-03-12T03:08:54;-1.70;99.90
20366;DHT22;10341;49.894;8.822;2023-03-12T03:14:13;-1.70;99.90
20366;DHT22;10341;49.894;8.822;2023-03-12T03:19:33;-1.60;99.90
20366;DHT22;10341;49.894;8.822;2023-03-12T03:24:53;-1.60;99.90
20366;DHT22;10341;49.894;8.822;2023-03-12T03:30:14;-1.60;99.90
20366;DHT22;10341;49.894;8.822;2023-03-12T03:35:38;-1.50;99.90
20366;DHT22;10341;49.894;8.822;2023-03-12T03:40:57;-1.50;99.90
20366;DHT22;10341;49.894;8.822;2023-03-12T03:46:17;-1.50;99.90
20366;DHT22;10341;49.894;8.822;2023-03-12T03:51:41;-1.50;99.90
20366;DHT22;10341;49.894;8.822;2023-03-12T03:57:03;-1.50;99.90
20366;DHT22;10341;49.894;8.822;2023-03-12T04:02:24;-1.50;99.90
20366;DHT22;10341;49.894;8.822;2023-03-12T04:07:44;-1.30;99.90
20366;DHT22;10341;49.894;8.822;2023-03-12T04:13:05;-1.40;99.90
20366;DHT22;10341;49.894;8.822;2023-03-12T04:18:24;-1.30;99.90
20366;DHT22;10341;49.894;8.822;2023-03-12T04:23:44;-1.40;99.90
20366;DHT22;10341;49.894;8.822;2023-03-12T04:29:05;-1.40;99.90
20366;DHT22;10341;49.894;8.822;2023-03-12T04:34:25;-1.30;99.90
20366;DHT22;10341;49.894;8.822;2023-03-12T04:39:46;-1.30;99.90
20366;DHT22;10341;49.894;8.822;2023-03-12T04:45:08;-1.30;99.90
20366;DHT22;10341;49.894;8.822;2023-03-12T04:50:32;-1.20;99.90
20366;DHT22;10341;49.894;8.822;2023-03-12T04:55:51;-1.10;99.90
20366;DHT22;10341;49.894;8.822;2023-03-12T05:01:15;-1.00;99.90
20366;DHT22;10341;49.894;8.822;2023-03-12T05:06:37;-1.00;99.90
20366;DHT22;10341;49.894;8.822;2023-03-12T05:11:57;-0.90;99.90
20366;DHT22;10341;49.894;8.822;2023-03-12T05:17:16;-0.70;99.90
20366;DHT22;10341;49.894;8.822;2023-03-12T05:22:36;-0.70;99.90
20366;DHT22;10341;49.894;8.822;2023-03-12T05:27:55;-0.60;99.90
20366;DHT22;10341;49.894;8.822;2023-03-12T05:33:16;-0.50;99.90
20366;DHT22;10341;49.894;8.822;2023-03-12T05:38:36;-0.40;99.90
20366;DHT22;10341;49.894;8.822;2023-03-12T05:43:56;-0.40;99.90
20366;DHT22;10341;49.894;8.822;2023-03-12T05:49:16;-0.40;99.90
20366;DHT22;10341;49.894;8.822;2023-03-12T05:54:36;-0.40;99.90
20366;DHT22;10341;49.894;8.822;2023-03-12T05:59:58;-0.20;99.90
20366;DHT22;10341;49.894;8.822;2023-03-12T06:05:17;-0.30;99.90
20366;DHT22;10341;49.894;8.822;2023-03-12T06:10:37;-0.20;99.90
20366;DHT22;10341;49.894;8.822;2023-03-12T06:16:05;-0.20;99.90
20366;DHT22;10341;49.894;8.822;2023-03-12T06:21:29;-0.20;99.90
20366;DHT22;10341;49.894;8.822;2023-03-12T06:26:50;0.00;99.90
20366;DHT22;10341;49.894;8.822;2023-03-12T06:32:10;-0.10;99.90
20366;DHT22;10341;49.894;8.822;2023-03-12T06:37:29;0.10;99.90
20366;DHT22;10341;49.894;8.822;2023-03-12T06:42:48;0.20;99.90
20366;DHT22;10341;49.894;8.822;2023-03-12T06:48:07;0.20;99.90
20366;DHT22;10341;49.894;8.822;2023-03-12T06:53:27;0.30;99.90
20366;DHT22;10341;49.894;8.822;2023-03-12T06:58:46;0.50;99.90
20366;DHT22;10341;49.894;8.822;2023-03-12T07:04:06;0.50;99.90
20366;DHT22;10341;49.894;8.822;2023-03-12T07:09:25;0.60;99.90
20366;DHT22;10341;49.894;8.822;2023-03-12T07:14:44;0.80;99.90
20366;DHT22;10341;49.894;8.822;2023-03-12T07:20:05;1.10;99.90
20366;DHT22;10341;49.894;8.822;2023-03-12T07:25:25;1.40;99.90
20366;DHT22;10341;49.894;8.822;2023-03-12T07:30:45;1.60;99.90
20366;DHT22;10341;49.894;8.822;2023-03-12T07:36:10;1.80;99.90
20366;DHT22;10341;49.894;8.822;2023-03-12T07:41:30;1.80;99.90
20366;DHT22;10341;49.894;8.822;2023-03-12T07:46:50;1.90;99.90
20366;DHT22;10341;49.894;8.822;2023-03-12T07:52:09;2.10;99.90
20366;DHT22;10341;49.894;8.822;2023-03-12T07:57:29;2.00;99.90
20366;DHT22;10341;49.894;8.822;2023-03-12T08:02:48;2.20;99.90
20366;DHT22;10341;49.894;8.822;2023-03-12T08:08:08;2.30;99.90
20366;DHT22;10341;49.894;8.822;2023-03-12T08:13:27;2.40;99.90
20366;DHT22;10341;49.894;8.822;2023-03-12T08:18:48;2.50;99.90
20366;DHT22;10341;49.894;8.822;2023-03-12T08:24:08;2.70;99.90
20366;DHT22;10341;49.894;8.822;2023-03-12T08:29:27;2.70;99.90
20366;DHT22;10341;49.894;8.822;2023-03-12T08:34:46;2.70;99.90
20366;DHT22;10341;49.894;8.822;2023-03-12T08:40:06;2.70;99.90
20366;DHT22;10341;49.894;8.822;2023-03-12T08:45:32;2.80;99.90
20366;DHT22;10341;49.894;8.822;2023-03-12T08:50:59;2.80;99.90
20366;DHT22;10341;49.894;8.822;2023-03-12T08:56:18;2.90;99.90
20366;DHT22;10341;49.894;8.822;2023-03-12T09:01:39;2.80;99.90
20366;DHT22;10341;49.894;8.822;2023-03-12T09:07:00;2.80;99.90
20366;DHT22;10341;49.894;8.822;2023-03-12T09:12:19;2.80;99.90
20366;DHT22;10341;49.894;8.822;2023-03-12T09:17:39;2.90;99.90
20366;DHT22;10341;49.894;8.822;2023-03-12T09:22:59;3.10;99.90
20366;DHT22;10341;49.894;8.822;2023-03-12T09:28:18;3.40;99.90
20366;DHT22;10341;49.894;8.822;2023-03-12T09:33:37;3.70;99.90
20366;DHT22;10341;49.894;8.822;2023-03-12T09:38:56;3.80;99.90
20366;DHT22;10341;49.894;8.822;2023-03-12T09:44:33;3.80;99.90
20366;DHT22;10341;49.894;8.822;2023-03-12T09:50:07;3.90;99.90
20366;DHT22;10341;49.894;8.822;2023-03-12T09:55:41;4.00;99.90
20366;DHT22;10341;49.894;8.822;2023-03-12T10:13:02;4.60;99.90
20366;DHT22;10341;49.894;8.822;2023-03-12T10:29:36;5.10;99.90
20366;DHT22;10341;49.894;8.822;2023-03-12T10:35:01;5.40;99.90
20366;DHT22;10341;49.894;8.822;2023-03-12T10:40:34;5.80;99.90
20366;DHT22;10341;49.894;8.822;2023-03-12T10:46:27;6.10;99.90
20366;DHT22;10341;49.894;8.822;2023-03-12T10:52:00;6.10;99.90
20366;DHT22;10341;49.894;8.822;2023-03-12T10:57:20;6.10;99.90
20366;DHT22;10341;49.894;8.822;2023-03-12T11:02:44;6.20;99.90
20366;DHT22;10341;49.894;8.822;2023-03-12T11:08:25;6.60;99.90
20366;DHT22;10341;49.894;8.822;2023-03-12T11:14:21;6.60;99.90
20366;DHT22;10341;49.894;8.822;2023-03-12T11:19:41;6.70;99.90
20366;DHT22;10341;49.894;8.822;2023-03-12T11:25:05;7.10;99.90
20366;DHT22;10341;49.894;8.822;2023-03-12T11:30:38;7.70;99.90
20366;DHT22;10341;49.894;8.822;2023-03-12T11:36:12;7.90;99.90
20366;DHT22;10341;49.894;8.822;2023-03-12T11:41:43;7.90;99.90
20366;DHT22;10341;49.894;8.822;2023-03-12T11:58:29;9.40;99.90
20366;DHT22;10341;49.894;8.822;2023-03-12T12:04:05;9.50;99.90
20366;DHT22;10341;49.894;8.822;2023-03-12T12:09:56;9.50;99.90
20366;DHT22;10341;49.894;8.822;2023-03-12T12:15:45;9.70;99.90
20366;DHT22;10341;49.894;8.822;2023-03-12T12:27:20;9.50;99.90
20366;DHT22;10341;49.894;8.822;2023-03-12T12:43:49;10.10;99.90
20366;DHT22;10341;49.894;8.822;2023-03-12T12:49:20;10.10;99.90
20366;DHT22;10341;49.894;8.822;2023-03-12T13:00:24;10.40;99.90
20366;DHT22;10341;49.894;8.822;2023-03-12T13:06:00;10.70;99.90
20366;DHT22;10341;49.894;8.822;2023-03-12T13:11:42;10.50;99.90
20366;DHT22;10341;49.894;8.822;2023-03-12T13:28:31;10.60;99.90
20366;DHT22;10341;49.894;8.822;2023-03-12T13:39:36;10.80;99.90
20366;DHT22;10341;49.894;8.822;2023-03-12T13:45:24;11.10;99.90
20366;DHT22;10341;49.894;8.822;2023-03-12T13:50:53;11.70;99.90
20366;DHT22;10341;49.894;8.822;2023-03-12T13:56:16;12.20;99.90
20366;DHT22;10341;49.894;8.822;2023-03-12T14:01:40;12.10;99.90
20366;DHT22;10341;49.894;8.822;2023-03-12T14:18:00;12.20;99.90
20366;DHT22;10341;49.894;8.822;2023-03-12T14:23:20;12.90;99.90
20366;DHT22;10341;49.894;8.822;2023-03-12T14:28:41;12.50;99.90
20366;DHT22;10341;49.894;8.822;2023-03-12T14:34:22;12.20;99.90
20366;DHT22;10341;49.894;8.822;2023-03-12T14:39:56;11.80;99.90
20366;DHT22;10341;49.894;8.822;2023-03-12T14:45:19;11.60;99.90
20366;DHT22;10341;49.894;8.822;2023-03-12T14:50:40;11.50;99.90
20366;DHT22;10341;49.894;8.822;2023-03-12T14:56:04;11.50;99.90
20366;DHT22;10341;49.894;8.822;2023-03-12T15:01:29;11.50;99.90
20366;DHT22;10341;49.894;8.822;2023-03-12T15:06:55;11.30;99.90
20366;DHT22;10341;49.894;8.822;2023-03-12T15:12:25;11.60;99.90
20366;DHT22;10341;49.894;8.822;2023-03-12T15:17:45;11.80;99.90
20366;DHT22;10341;49.894;8.822;2023-03-12T15:23:06;11.90;99.90
20366;DHT22;10341;49.894;8.822;2023-03-12T15:28:27;12.10;99.90
20366;DHT22;10341;49.894;8.822;2023-03-12T15:34:00;12.10;99.90
20366;DHT22;10341;49.894;8.822;2023-03-12T15:39:34;12.10;99.90
20366;DHT22;10341;49.894;8.822;2023-03-12T15:45:01;12.30;99.90
20366;DHT22;10341;49.894;8.822;2023-03-12T15:50:30;12.50;99.90
20366;DHT22;10341;49.894;8.822;2023-03-12T15:56:26;12.50;99.90
20366;DHT22;10341;49.894;8.822;2023-03-12T16:01:47;12.50;99.90
20366;DHT22;10341;49.894;8.822;2023-03-12T16:07:10;12.40;99.90
20366;DHT22;10341;49.894;8.822;2023-03-12T16:12:30;12.30;99.90
20366;DHT22;10341;49.894;8.822;2023-03-12T16:17:49;12.30;99.90
20366;DHT22;10341;49.894;8.822;2023-03-12T16:23:09;12.30;99.90
20366;DHT22;10341;49.894;8.822;2023-03-12T16:28:28;12.20;99.90
20366;DHT22;10341;49.894;8.822;2023-03-12T16:33:48;12.20;99.90
20366;DHT22;10341;49.894;8.822;2023-03-12T16:39:08;12.10;99.90
20366;DHT22;10341;49.894;8.822;2023-03-12T16:44:31;12.00;99.90
20366;DHT22;10341;49.894;8.822;2023-03-12T16:49:52;12.00;99.90
20366;DHT22;10341;49.894;8.822;2023-03-12T16:55:12;12.00;99.90
20366;DHT22;10341;49.894;8.822;2023-03-12T17:00:33;12.00;99.90
20366;DHT22;10341;49.894;8.822;2023-03-12T17:05:53;11.90;99.90
20366;DHT22;10341;49.894;8.822;2023-03-12T17:16:57;11.70;99.90
20366;DHT22;10341;49.894;8.822;2023-03-12T17:22:20;11.80;99.90
20366;DHT22;10341;49.894;8.822;2023-03-12T17:27:39;11.80;99.90
20366;DHT22;10341;49.894;8.822;2023-03-12T17:33:25;11.80;99.90
20366;DHT22;10341;49.894;8.822;2023-03-12T17:38:45;11.90;99.90
20366;DHT22;10341;49.894;8.822;2023-03-12T17:44:04;11.70;99.90
20366;DHT22;10341;49.894;8.822;2023-03-12T17:49:26;11.60;99.90
20366;DHT22;10341;49.894;8.822;2023-03-12T17:54:45;11.70;99.90
20366;DHT22;10341;49.894;8.822;2023-03-12T18:00:05;11.70;99.90
20366;DHT22;10341;49.894;8.822;2023-03-12T18:05:37;11.70;99.90
20366;DHT22;10341;49.894;8.822;2023-03-12T18:10:57;11.70;99.90
20366;DHT22;10341;49.894;8.822;2023-03-12T18:16:16;11.70;99.90
20366;DHT22;10341;49.894;8.822;2023-03-12T18:21:36;11.60;99.90
20366;DHT22;10341;49.894;8.822;2023-03-12T18:26:55;11.50;99.90
20366;DHT22;10341;49.894;8.822;2023-03-12T18:32:14;11.60;99.90
20366;DHT22;10341;49.894;8.822;2023-03-12T18:37:34;11.50;99.90
20366;DHT22;10341;49.894;8.822;2023-03-12T18:42:56;11.50;99.90
20366;DHT22;10341;49.894;8.822;2023-03-12T18:48:15;11.50;99.90
20366;DHT22;10341;49.894;8.822;2023-03-12T18:53:34;11.60;99.90
20366;DHT22;10341;49.894;8.822;2023-03-12T18:58:54;11.60;99.90
20366;DHT22;10341;49.894;8.822;2023-03-12T19:04:17;11.50;99.90
20366;DHT22;10341;49.894;8.822;2023-03-12T19:09:37;11.40;99.90
20366;DHT22;10341;49.894;8.822;2023-03-12T19:14:57;11.40;99.90
20366;DHT22;10341;49.894;8.822;2023-03-12T19:20:16;11.40;99.90
20366;DHT22;10341;49.894;8.822;2023-03-12T19:25:35;11.40;99.90
20366;DHT22;10341;49.894;8.822;2023-03-12T19:30:59;11.40;99.90
20366;DHT22;10341;49.894;8.822;2023-03-12T19:36:19;11.30;99.90
20366;DHT22;10341;49.894;8.822;2023-03-12T19:41:39;11.30;99.90
20366;DHT22;10341;49.894;8.822;2023-03-12T19:47:02;11.20;99.90
20366;DHT22;10341;49.894;8.822;2023-03-12T19:52:25;11.10;99.90
20366;DHT22;10341;49.894;8.822;2023-03-12T19:57:44;10.90;99.90
20366;DHT22;10341;49.894;8.822;2023-03-12T20:03:03;10.90;99.90
20366;DHT22;10341;49.894;8.822;2023-03-12T20:08:23;10.90;99.90
20366;DHT22;10341;49.894;8.822;2023-03-12T20:13:47;11.00;99.90
20366;DHT22;10341;49.894;8.822;2023-03-12T20:19:07;10.90;99.90
20366;DHT22;10341;49.894;8.822;2023-03-12T20:24:26;10.90;99.90
20366;DHT22;10341;49.894;8.822;2023-03-12T20:29:46;10.90;99.90
20366;DHT22;10341;49.894;8.822;2023-03-12T20:35:08;10.90;99.90
20366;DHT22;10341;49.894;8.822;2023-03-12T20:40:28;10.90;99.90
20366;DHT22;10341;49.894;8.822;2023-03-12T20:45:47;11.00;99.90
20366;DHT22;10341;49.894;8.822;2023-03-12T20:51:07;11.00;99.90
20366;DHT22;10341;49.894;8.822;2023-03-12T20:56:27;11.00;99.90
20366;DHT22;10341;49.894;8.822;2023-03-12T21:01:46;11.00;99.90
20366;DHT22;10341;49.894;8.822;2023-03-12T21:07:05;11.00;99.90
20366;DHT22;10341;49.894;8.822;2023-03-12T21:12:24;10.90;99.90
20366;DHT22;10341;49.894;8.822;2023-03-12T21:17:44;10.80;99.90
20366;DHT22;10341;49.894;8.822;2023-03-12T21:23:05;10.90;99.90
20366;DHT22;10341;49.894;8.822;2023-03-12T21:28:24;10.90;99.90
20366;DHT22;10341;49.894;8.822;2023-03-12T21:33:44;10.80;99.90
20366;DHT22;10341;49.894;8.822;2023-03-12T21:39:03;10.80;99.90
20366;DHT22;10341;49.894;8.822;2023-03-12T21:44:22;10.80;99.90
20366;DHT22;10341;49.894;8.822;2023-03-12T21:49:41;10.70;99.90
20366;DHT22;10341;49.894;8.822;2023-03-12T21:55:01;10.70;99.90
20366;DHT22;10341;49.894;8.822;2023-03-12T22:00:20;10.60;99.90
20366;DHT22;10341;49.894;8.822;2023-03-12T22:05:39;10.50;99.90
20366;DHT22;10341;49.894;8.822;2023-03-12T22:10:58;10.60;99.90
20366;DHT22;10341;49.894;8.822;2023-03-12T22:16:18;10.50;99.90
20366;DHT22;10341;49.894;8.822;2023-03-12T22:21:37;10.50;99.90
20366;DHT22;10341;49.894;8.822;2023-03-12T22:26:57;10.60;99.90
20366;DHT22;10341;49.894;8.822;2023-03-12T22:32:17;10.50;99.90
20366;DHT22;10341;49.894;8.822;2023-03-12T22:37:36;10.40;99.90
20366;DHT22;10341;49.894;8.822;2023-03-12T22:42:56;10.20;99.90
20366;DHT22;10341;49.894;8.822;2023-03-12T22:48:15;10.10;99.90
20366;DHT22;10341;49.894;8.822;2023-03-12T22:53:35;10.00;99.90
20366;DHT22;10341;49.894;8.822;2023-03-12T22:58:54;10.00;99.90
20366;DHT22;10341;49.894;8.822;2023-03-12T23:04:14;10.00;99.90
20366;DHT22;10341;49.894;8.822;2023-03-12T23:09:33;10.00;99.90
20366;DHT22;10341;49.894;8.822;2023-03-12T23:14:53;10.00;99.90
20366;DHT22;10341;49.894;8.822;2023-03-12T23:20:12;10.00;99.90
20366;DHT22;10341;49.894;8.822;2023-03-12T23:25:32;10.10;99.90
20366;DHT22;10341;49.894;8.822;2023-03-12T23:36:14;10.10;99.90
20366;DHT22;10341;49.894;8.822;2023-03-12T23:41:34;10.10;99.90
20366;DHT22;10341;49.894;8.822;2023-03-12T23:46:54;10.30;99.90
20366;DHT22;10341;49.894;8.822;2023-03-12T23:52:13;10.30;99.90
20366;DHT22;10341;49.894;8.822;2023-03-12T23:57:32;10.50;99.90
